sensor_id;sensor_type;location;lat;lon;timestamp;P1;durP1;ratioP1;P2;durP2;ratioP2
6027;SDS011;3042;43.194;27.646;2022-07-23T00:00:18;20.27;;;3.80;;
6027;SDS011;3042;43.194;27.646;2022-07-23T00:02:46;18.37;;;3.40;;
6027;SDS011;3042;43.194;27.646;2022-07-23T00:05:13;10.93;;;2.90;;
6027;SDS011;3042;43.194;27.646;2022-07-23T00:07:41;9.30;;;3.07;;
6027;SDS011;3042;43.194;27.646;2022-07-23T00:10:08;28.77;;;5.90;;
6027;SDS011;3042;43.194;27.646;2022-07-23T00:12:36;11.57;;;2.63;;
6027;SDS011;3042;43.194;27.646;2022-07-23T00:15:05;29.60;;;4.23;;
6027;SDS011;3042;43.194;27.646;2022-07-23T00:17:34;28.20;;;4.57;;
6027;SDS011;3042;43.194;27.646;2022-07-23T00:20:02;10.53;;;3.33;;
6027;SDS011;3042;43.194;27.646;2022-07-23T00:22:30;11.20;;;4.37;;
6027;SDS011;3042;43.194;27.646;2022-07-23T00:24:57;17.63;;;5.13;;
6027;SDS011;3042;43.194;27.646;2022-07-23T00:27:24;16.70;;;4.60;;
6027;SDS011;3042;43.194;27.646;2022-07-23T00:29:52;29.33;;;3.37;;
6027;SDS011;3042;43.194;27.646;2022-07-23T00:32:19;8.23;;;3.70;;
6027;SDS011;3042;43.194;27.646;2022-07-23T00:34:48;7.63;;;3.70;;
6027;SDS011;3042;43.194;27.646;2022-07-23T00:37:15;9.00;;;3.63;;
6027;SDS011;3042;43.194;27.646;2022-07-23T00:39:42;10.03;;;3.63;;
6027;SDS011;3042;43.194;27.646;2022-07-23T00:42:10;7.10;;;4.00;;
6027;SDS011;3042;43.194;27.646;2022-07-23T00:44:37;14.23;;;3.83;;
6027;SDS011;3042;43.194;27.646;2022-07-23T00:47:04;15.40;;;3.93;;
6027;SDS011;3042;43.194;27.646;2022-07-23T00:49:32;5.97;;;3.93;;
6027;SDS011;3042;43.194;27.646;2022-07-23T00:52:01;7.83;;;3.90;;
6027;SDS011;3042;43.194;27.646;2022-07-23T00:54:29;9.40;;;3.53;;
6027;SDS011;3042;43.194;27.646;2022-07-23T00:56:57;14.10;;;3.40;;
6027;SDS011;3042;43.194;27.646;2022-07-23T00:59:24;8.13;;;3.27;;
6027;SDS011;3042;43.194;27.646;2022-07-23T01:01:51;11.73;;;3.00;;
6027;SDS011;3042;43.194;27.646;2022-07-23T01:04:19;5.97;;;3.60;;
6027;SDS011;3042;43.194;27.646;2022-07-23T01:06:46;10.30;;;3.70;;
6027;SDS011;3042;43.194;27.646;2022-07-23T01:09:15;7.97;;;3.90;;
6027;SDS011;3042;43.194;27.646;2022-07-23T01:11:42;4.47;;;3.30;;
6027;SDS011;3042;43.194;27.646;2022-07-23T01:14:10;10.03;;;3.73;;
6027;SDS011;3042;43.194;27.646;2022-07-23T01:16:39;20.87;;;4.03;;
6027;SDS011;3042;43.194;27.646;2022-07-23T01:19:07;17.00;;;3.43;;
6027;SDS011;3042;43.194;27.646;2022-07-23T01:21:35;10.30;;;3.70;;
6027;SDS011;3042;43.194;27.646;2022-07-23T01:24:06;17.53;;;4.40;;
6027;SDS011;3042;43.194;27.646;2022-07-23T01:26:34;9.93;;;3.37;;
6027;SDS011;3042;43.194;27.646;2022-07-23T01:29:02;10.83;;;3.40;;
6027;SDS011;3042;43.194;27.646;2022-07-23T01:31:30;4.83;;;3.30;;
6027;SDS011;3042;43.194;27.646;2022-07-23T01:33:57;10.30;;;3.93;;
6027;SDS011;3042;43.194;27.646;2022-07-23T01:36:25;8.33;;;3.50;;
6027;SDS011;3042;43.194;27.646;2022-07-23T01:38:52;17.83;;;3.93;;
6027;SDS011;3042;43.194;27.646;2022-07-23T01:41:21;15.33;;;4.10;;
6027;SDS011;3042;43.194;27.646;2022-07-23T01:43:48;11.20;;;5.00;;
6027;SDS011;3042;43.194;27.646;2022-07-23T01:46:15;5.60;;;3.83;;
6027;SDS011;3042;43.194;27.646;2022-07-23T01:48:43;6.90;;;3.80;;
6027;SDS011;3042;43.194;27.646;2022-07-23T01:51:10;3.73;;;3.07;;
6027;SDS011;3042;43.194;27.646;2022-07-23T01:53:37;7.33;;;3.50;;
6027;SDS011;3042;43.194;27.646;2022-07-23T01:56:05;13.27;;;3.87;;
6027;SDS011;3042;43.194;27.646;2022-07-23T01:58:34;7.53;;;3.73;;
6027;SDS011;3042;43.194;27.646;2022-07-23T02:01:01;7.03;;;3.90;;
6027;SDS011;3042;43.194;27.646;2022-07-23T02:03:29;5.30;;;3.23;;
6027;SDS011;3042;43.194;27.646;2022-07-23T02:05:56;7.67;;;3.50;;
6027;SDS011;3042;43.194;27.646;2022-07-23T02:08:23;13.45;;;4.43;;
6027;SDS011;3042;43.194;27.646;2022-07-23T02:10:50;12.47;;;2.67;;
6027;SDS011;3042;43.194;27.646;2022-07-23T02:13:18;9.17;;;3.03;;
6027;SDS011;3042;43.194;27.646;2022-07-23T02:15:47;8.00;;;3.50;;
6027;SDS011;3042;43.194;27.646;2022-07-23T02:18:14;15.13;;;4.40;;
6027;SDS011;3042;43.194;27.646;2022-07-23T02:20:42;5.27;;;2.73;;
6027;SDS011;3042;43.194;27.646;2022-07-23T02:23:09;15.67;;;4.33;;
6027;SDS011;3042;43.194;27.646;2022-07-23T02:25:37;22.30;;;4.27;;
6027;SDS011;3042;43.194;27.646;2022-07-23T02:28:04;8.53;;;3.60;;
6027;SDS011;3042;43.194;27.646;2022-07-23T02:30:32;8.33;;;3.20;;
6027;SDS011;3042;43.194;27.646;2022-07-23T02:33:00;11.63;;;3.93;;
6027;SDS011;3042;43.194;27.646;2022-07-23T02:35:28;11.37;;;3.77;;
6027;SDS011;3042;43.194;27.646;2022-07-23T02:37:55;8.57;;;3.90;;
6027;SDS011;3042;43.194;27.646;2022-07-23T02:40:22;8.00;;;4.27;;
6027;SDS011;3042;43.194;27.646;2022-07-23T02:42:49;12.93;;;4.60;;
6027;SDS011;3042;43.194;27.646;2022-07-23T02:45:17;7.73;;;4.10;;
6027;SDS011;3042;43.194;27.646;2022-07-23T02:47:44;11.90;;;5.73;;
6027;SDS011;3042;43.194;27.646;2022-07-23T02:50:13;5.80;;;4.43;;
6027;SDS011;3042;43.194;27.646;2022-07-23T02:52:41;4.77;;;4.37;;
6027;SDS011;3042;43.194;27.646;2022-07-23T02:55:08;9.30;;;5.13;;
6027;SDS011;3042;43.194;27.646;2022-07-23T02:57:36;6.27;;;4.53;;
6027;SDS011;3042;43.194;27.646;2022-07-23T03:00:03;23.07;;;5.43;;
6027;SDS011;3042;43.194;27.646;2022-07-23T03:02:33;11.53;;;5.43;;
6027;SDS011;3042;43.194;27.646;2022-07-23T03:05:00;11.73;;;4.90;;
6027;SDS011;3042;43.194;27.646;2022-07-23T03:07:29;11.60;;;5.07;;
6027;SDS011;3042;43.194;27.646;2022-07-23T03:09:56;12.63;;;4.57;;
6027;SDS011;3042;43.194;27.646;2022-07-23T03:12:23;11.10;;;4.63;;
6027;SDS011;3042;43.194;27.646;2022-07-23T03:14:51;7.50;;;5.77;;
6027;SDS011;3042;43.194;27.646;2022-07-23T03:17:18;18.10;;;5.83;;
6027;SDS011;3042;43.194;27.646;2022-07-23T03:19:45;13.47;;;5.90;;
6027;SDS011;3042;43.194;27.646;2022-07-23T03:22:12;9.93;;;6.30;;
6027;SDS011;3042;43.194;27.646;2022-07-23T03:24:41;13.60;;;6.07;;
6027;SDS011;3042;43.194;27.646;2022-07-23T03:27:21;16.73;;;5.73;;
6027;SDS011;3042;43.194;27.646;2022-07-23T03:29:49;14.33;;;5.33;;
6027;SDS011;3042;43.194;27.646;2022-07-23T03:32:16;9.43;;;5.70;;
6027;SDS011;3042;43.194;27.646;2022-07-23T03:34:44;9.03;;;6.00;;
6027;SDS011;3042;43.194;27.646;2022-07-23T03:37:11;10.43;;;6.60;;
6027;SDS011;3042;43.194;27.646;2022-07-23T03:39:38;13.40;;;6.97;;
6027;SDS011;3042;43.194;27.646;2022-07-23T03:42:07;11.80;;;6.50;;
6027;SDS011;3042;43.194;27.646;2022-07-23T03:44:35;14.07;;;5.73;;
6027;SDS011;3042;43.194;27.646;2022-07-23T03:47:03;8.53;;;6.67;;
6027;SDS011;3042;43.194;27.646;2022-07-23T03:49:31;13.40;;;7.00;;
6027;SDS011;3042;43.194;27.646;2022-07-23T03:51:59;7.80;;;5.97;;
6027;SDS011;3042;43.194;27.646;2022-07-23T03:54:27;18.70;;;5.10;;
6027;SDS011;3042;43.194;27.646;2022-07-23T03:56:54;10.23;;;4.53;;
6027;SDS011;3042;43.194;27.646;2022-07-23T03:59:23;10.00;;;4.43;;
6027;SDS011;3042;43.194;27.646;2022-07-23T04:01:50;4.80;;;3.97;;
6027;SDS011;3042;43.194;27.646;2022-07-23T04:04:17;6.73;;;3.47;;
6027;SDS011;3042;43.194;27.646;2022-07-23T04:06:45;8.03;;;3.63;;
6027;SDS011;3042;43.194;27.646;2022-07-23T04:09:12;3.50;;;3.10;;
6027;SDS011;3042;43.194;27.646;2022-07-23T04:11:39;21.93;;;5.60;;
6027;SDS011;3042;43.194;27.646;2022-07-23T04:14:07;23.67;;;3.97;;
6027;SDS011;3042;43.194;27.646;2022-07-23T04:16:35;12.77;;;4.00;;
6027;SDS011;3042;43.194;27.646;2022-07-23T04:19:03;16.00;;;4.43;;
6027;SDS011;3042;43.194;27.646;2022-07-23T04:21:30;19.03;;;5.17;;
6027;SDS011;3042;43.194;27.646;2022-07-23T04:23:57;32.80;;;4.80;;
6027;SDS011;3042;43.194;27.646;2022-07-23T04:26:24;33.27;;;5.07;;
6027;SDS011;3042;43.194;27.646;2022-07-23T04:28:52;8.67;;;3.83;;
6027;SDS011;3042;43.194;27.646;2022-07-23T04:31:19;15.50;;;4.00;;
6027;SDS011;3042;43.194;27.646;2022-07-23T04:33:48;11.53;;;3.80;;
6027;SDS011;3042;43.194;27.646;2022-07-23T04:36:15;10.50;;;3.10;;
6027;SDS011;3042;43.194;27.646;2022-07-23T04:38:42;11.03;;;3.90;;
6027;SDS011;3042;43.194;27.646;2022-07-23T04:41:09;21.90;;;4.50;;
6027;SDS011;3042;43.194;27.646;2022-07-23T04:43:37;21.90;;;3.70;;
6027;SDS011;3042;43.194;27.646;2022-07-23T04:46:04;9.47;;;4.40;;
6027;SDS011;3042;43.194;27.646;2022-07-23T04:48:32;11.60;;;3.50;;
6027;SDS011;3042;43.194;27.646;2022-07-23T04:51:02;8.60;;;3.30;;
6027;SDS011;3042;43.194;27.646;2022-07-23T04:53:30;8.83;;;3.43;;
6027;SDS011;3042;43.194;27.646;2022-07-23T04:55:57;15.47;;;4.30;;
6027;SDS011;3042;43.194;27.646;2022-07-23T04:58:25;10.87;;;5.00;;
6027;SDS011;3042;43.194;27.646;2022-07-23T05:00:52;7.90;;;4.83;;
6027;SDS011;3042;43.194;27.646;2022-07-23T05:03:19;10.13;;;4.43;;
6027;SDS011;3042;43.194;27.646;2022-07-23T05:05:46;9.43;;;4.13;;
6027;SDS011;3042;43.194;27.646;2022-07-23T05:08:32;21.53;;;6.50;;
6027;SDS011;3042;43.194;27.646;2022-07-23T05:11:00;7.17;;;5.07;;
6027;SDS011;3042;43.194;27.646;2022-07-23T05:13:27;9.63;;;6.10;;
6027;SDS011;3042;43.194;27.646;2022-07-23T05:15:54;23.60;;;4.60;;
6027;SDS011;3042;43.194;27.646;2022-07-23T05:18:22;8.20;;;4.43;;
6027;SDS011;3042;43.194;27.646;2022-07-23T05:20:49;4.70;;;3.83;;
6027;SDS011;3042;43.194;27.646;2022-07-23T05:23:17;14.20;;;4.43;;
6027;SDS011;3042;43.194;27.646;2022-07-23T05:25:45;15.00;;;4.87;;
6027;SDS011;3042;43.194;27.646;2022-07-23T05:28:13;16.30;;;4.63;;
6027;SDS011;3042;43.194;27.646;2022-07-23T05:30:40;15.43;;;4.67;;
6027;SDS011;3042;43.194;27.646;2022-07-23T05:33:07;9.10;;;4.00;;
6027;SDS011;3042;43.194;27.646;2022-07-23T05:35:35;9.43;;;4.37;;
6027;SDS011;3042;43.194;27.646;2022-07-23T05:38:02;5.30;;;3.60;;
6027;SDS011;3042;43.194;27.646;2022-07-23T05:40:29;11.67;;;3.27;;
6027;SDS011;3042;43.194;27.646;2022-07-23T05:42:59;4.07;;;3.00;;
6027;SDS011;3042;43.194;27.646;2022-07-23T05:45:27;8.57;;;3.47;;
6027;SDS011;3042;43.194;27.646;2022-07-23T05:47:54;4.63;;;3.40;;
6027;SDS011;3042;43.194;27.646;2022-07-23T05:50:22;4.70;;;4.00;;
6027;SDS011;3042;43.194;27.646;2022-07-23T05:52:49;6.30;;;4.10;;
6027;SDS011;3042;43.194;27.646;2022-07-23T05:55:17;30.37;;;5.83;;
6027;SDS011;3042;43.194;27.646;2022-07-23T05:57:45;9.70;;;4.10;;
6027;SDS011;3042;43.194;27.646;2022-07-23T06:00:14;14.27;;;4.10;;
6027;SDS011;3042;43.194;27.646;2022-07-23T06:02:42;5.20;;;4.07;;
6027;SDS011;3042;43.194;27.646;2022-07-23T06:05:09;3.87;;;3.50;;
6027;SDS011;3042;43.194;27.646;2022-07-23T06:07:37;4.50;;;4.00;;
6027;SDS011;3042;43.194;27.646;2022-07-23T06:10:05;4.00;;;3.70;;
6027;SDS011;3042;43.194;27.646;2022-07-23T06:12:33;4.73;;;4.53;;
6027;SDS011;3042;43.194;27.646;2022-07-23T06:15:00;3.90;;;3.50;;
6027;SDS011;3042;43.194;27.646;2022-07-23T06:17:29;3.33;;;2.97;;
6027;SDS011;3042;43.194;27.646;2022-07-23T06:19:56;13.90;;;3.47;;
6027;SDS011;3042;43.194;27.646;2022-07-23T06:22:24;8.73;;;4.20;;
6027;SDS011;3042;43.194;27.646;2022-07-23T06:24:51;4.63;;;3.33;;
6027;SDS011;3042;43.194;27.646;2022-07-23T06:27:18;5.80;;;3.30;;
6027;SDS011;3042;43.194;27.646;2022-07-23T06:29:46;6.47;;;4.43;;
6027;SDS011;3042;43.194;27.646;2022-07-23T06:32:13;3.73;;;3.03;;
6027;SDS011;3042;43.194;27.646;2022-07-23T06:34:42;6.40;;;2.97;;
6027;SDS011;3042;43.194;27.646;2022-07-23T06:37:09;5.73;;;3.67;;
6027;SDS011;3042;43.194;27.646;2022-07-23T06:39:36;5.67;;;3.63;;
6027;SDS011;3042;43.194;27.646;2022-07-23T06:42:04;4.83;;;3.67;;
6027;SDS011;3042;43.194;27.646;2022-07-23T06:44:31;34.53;;;5.87;;
6027;SDS011;3042;43.194;27.646;2022-07-23T06:46:59;3.40;;;3.20;;
6027;SDS011;3042;43.194;27.646;2022-07-23T06:49:26;8.30;;;4.33;;
6027;SDS011;3042;43.194;27.646;2022-07-23T06:51:55;4.93;;;4.23;;
6027;SDS011;3042;43.194;27.646;2022-07-23T06:54:23;11.37;;;4.50;;
6027;SDS011;3042;43.194;27.646;2022-07-23T06:56:50;13.23;;;4.93;;
6027;SDS011;3042;43.194;27.646;2022-07-23T06:59:18;9.80;;;5.00;;
6027;SDS011;3042;43.194;27.646;2022-07-23T07:01:45;5.97;;;4.40;;
6027;SDS011;3042;43.194;27.646;2022-07-23T07:04:12;6.53;;;4.50;;
6027;SDS011;3042;43.194;27.646;2022-07-23T07:06:40;6.90;;;4.83;;
6027;SDS011;3042;43.194;27.646;2022-07-23T07:09:08;7.90;;;5.00;;
6027;SDS011;3042;43.194;27.646;2022-07-23T07:11:36;6.30;;;5.40;;
6027;SDS011;3042;43.194;27.646;2022-07-23T07:14:03;7.60;;;4.60;;
6027;SDS011;3042;43.194;27.646;2022-07-23T07:16:31;5.47;;;5.10;;
6027;SDS011;3042;43.194;27.646;2022-07-23T07:18:59;6.43;;;5.13;;
6027;SDS011;3042;43.194;27.646;2022-07-23T07:21:26;12.83;;;5.97;;
6027;SDS011;3042;43.194;27.646;2022-07-23T07:23:54;13.13;;;6.13;;
6027;SDS011;3042;43.194;27.646;2022-07-23T07:26:22;10.33;;;5.00;;
6027;SDS011;3042;43.194;27.646;2022-07-23T07:28:50;10.83;;;5.80;;
6027;SDS011;3042;43.194;27.646;2022-07-23T07:31:18;9.77;;;5.37;;
6027;SDS011;3042;43.194;27.646;2022-07-23T07:33:45;6.80;;;6.10;;
6027;SDS011;3042;43.194;27.646;2022-07-23T07:36:14;5.50;;;4.43;;
6027;SDS011;3042;43.194;27.646;2022-07-23T07:38:41;20.27;;;6.10;;
6027;SDS011;3042;43.194;27.646;2022-07-23T07:41:08;8.50;;;5.40;;
6027;SDS011;3042;43.194;27.646;2022-07-23T07:43:38;8.50;;;5.00;;
6027;SDS011;3042;43.194;27.646;2022-07-23T07:46:05;7.03;;;4.33;;
6027;SDS011;3042;43.194;27.646;2022-07-23T07:48:35;6.20;;;5.60;;
6027;SDS011;3042;43.194;27.646;2022-07-23T07:51:03;15.43;;;5.37;;
6027;SDS011;3042;43.194;27.646;2022-07-23T07:53:31;7.43;;;4.50;;
6027;SDS011;3042;43.194;27.646;2022-07-23T07:55:58;4.43;;;4.03;;
6027;SDS011;3042;43.194;27.646;2022-07-23T07:58:25;5.60;;;5.10;;
6027;SDS011;3042;43.194;27.646;2022-07-23T08:00:54;4.93;;;4.40;;
6027;SDS011;3042;43.194;27.646;2022-07-23T08:03:21;5.23;;;3.30;;
6027;SDS011;3042;43.194;27.646;2022-07-23T08:05:49;8.55;;;4.25;;
6027;SDS011;3042;43.194;27.646;2022-07-23T08:08:16;4.50;;;3.20;;
6027;SDS011;3042;43.194;27.646;2022-07-23T08:10:43;5.90;;;3.80;;
6027;SDS011;3042;43.194;27.646;2022-07-23T08:13:12;4.10;;;3.47;;
6027;SDS011;3042;43.194;27.646;2022-07-23T08:15:40;4.73;;;4.43;;
6027;SDS011;3042;43.194;27.646;2022-07-23T08:18:09;6.57;;;3.80;;
6027;SDS011;3042;43.194;27.646;2022-07-23T08:20:37;6.37;;;3.53;;
6027;SDS011;3042;43.194;27.646;2022-07-23T08:23:05;2.83;;;2.73;;
6027;SDS011;3042;43.194;27.646;2022-07-23T08:25:34;5.73;;;3.70;;
6027;SDS011;3042;43.194;27.646;2022-07-23T08:28:03;3.30;;;3.10;;
6027;SDS011;3042;43.194;27.646;2022-07-23T08:30:32;3.03;;;2.83;;
6027;SDS011;3042;43.194;27.646;2022-07-23T08:33:00;8.40;;;3.87;;
6027;SDS011;3042;43.194;27.646;2022-07-23T08:35:32;6.20;;;3.37;;
6027;SDS011;3042;43.194;27.646;2022-07-23T08:38:02;4.50;;;3.73;;
6027;SDS011;3042;43.194;27.646;2022-07-23T08:40:31;3.83;;;3.37;;
6027;SDS011;3042;43.194;27.646;2022-07-23T08:43:01;7.67;;;4.23;;
6027;SDS011;3042;43.194;27.646;2022-07-23T08:45:31;3.27;;;3.10;;
6027;SDS011;3042;43.194;27.646;2022-07-23T08:48:02;5.77;;;3.40;;
6027;SDS011;3042;43.194;27.646;2022-07-23T08:50:33;5.30;;;3.63;;
6027;SDS011;3042;43.194;27.646;2022-07-23T08:53:02;5.37;;;3.37;;
6027;SDS011;3042;43.194;27.646;2022-07-23T08:55:32;6.60;;;3.60;;
6027;SDS011;3042;43.194;27.646;2022-07-23T08:58:00;4.77;;;3.10;;
6027;SDS011;3042;43.194;27.646;2022-07-23T09:00:28;8.40;;;3.50;;
6027;SDS011;3042;43.194;27.646;2022-07-23T09:02:56;4.80;;;3.40;;
6027;SDS011;3042;43.194;27.646;2022-07-23T09:05:24;3.60;;;3.30;;
6027;SDS011;3042;43.194;27.646;2022-07-23T09:08:05;7.70;;;3.97;;
6027;SDS011;3042;43.194;27.646;2022-07-23T09:10:43;9.50;;;2.93;;
6027;SDS011;3042;43.194;27.646;2022-07-23T09:13:29;4.20;;;3.20;;
6027;SDS011;3042;43.194;27.646;2022-07-23T09:16:08;3.20;;;3.00;;
6027;SDS011;3042;43.194;27.646;2022-07-23T09:18:42;3.77;;;3.37;;
6027;SDS011;3042;43.194;27.646;2022-07-23T09:21:18;3.70;;;3.40;;
6027;SDS011;3042;43.194;27.646;2022-07-23T09:23:50;9.10;;;3.77;;
6027;SDS011;3042;43.194;27.646;2022-07-23T09:29:05;6.93;;;3.13;;
6027;SDS011;3042;43.194;27.646;2022-07-23T09:31:47;5.17;;;3.80;;
6027;SDS011;3042;43.194;27.646;2022-07-23T09:34:17;5.80;;;3.90;;
6027;SDS011;3042;43.194;27.646;2022-07-23T09:36:46;4.00;;;3.30;;
6027;SDS011;3042;43.194;27.646;2022-07-23T09:39:21;8.67;;;3.60;;
6027;SDS011;3042;43.194;27.646;2022-07-23T09:41:53;4.90;;;3.73;;
6027;SDS011;3042;43.194;27.646;2022-07-23T09:44:20;7.88;;;4.30;;
6027;SDS011;3042;43.194;27.646;2022-07-23T09:46:49;4.07;;;3.77;;
6027;SDS011;3042;43.194;27.646;2022-07-23T09:49:18;6.60;;;3.83;;
6027;SDS011;3042;43.194;27.646;2022-07-23T09:51:50;12.07;;;4.07;;
6027;SDS011;3042;43.194;27.646;2022-07-23T09:54:22;5.83;;;3.90;;
6027;SDS011;3042;43.194;27.646;2022-07-23T09:56:52;4.20;;;3.67;;
6027;SDS011;3042;43.194;27.646;2022-07-23T10:01:50;6.03;;;3.73;;
6027;SDS011;3042;43.194;27.646;2022-07-23T10:04:19;22.17;;;5.37;;
6027;SDS011;3042;43.194;27.646;2022-07-23T10:06:48;12.37;;;4.63;;
6027;SDS011;3042;43.194;27.646;2022-07-23T10:09:20;15.27;;;4.60;;
6027;SDS011;3042;43.194;27.646;2022-07-23T10:11:52;14.23;;;4.90;;
6027;SDS011;3042;43.194;27.646;2022-07-23T10:14:25;10.03;;;4.27;;
6027;SDS011;3042;43.194;27.646;2022-07-23T10:16:56;7.00;;;4.13;;
6027;SDS011;3042;43.194;27.646;2022-07-23T10:19:24;11.27;;;4.97;;
6027;SDS011;3042;43.194;27.646;2022-07-23T10:21:52;8.60;;;4.10;;
6027;SDS011;3042;43.194;27.646;2022-07-23T10:24:28;13.23;;;4.00;;
6027;SDS011;3042;43.194;27.646;2022-07-23T10:27:10;29.53;;;5.30;;
6027;SDS011;3042;43.194;27.646;2022-07-23T10:29:58;10.40;;;4.07;;
6027;SDS011;3042;43.194;27.646;2022-07-23T10:32:36;43.33;;;7.70;;
6027;SDS011;3042;43.194;27.646;2022-07-23T10:35:13;56.53;;;6.63;;
6027;SDS011;3042;43.194;27.646;2022-07-23T10:37:49;39.05;;;6.78;;
6027;SDS011;3042;43.194;27.646;2022-07-23T10:40:20;34.20;;;6.27;;
6027;SDS011;3042;43.194;27.646;2022-07-23T10:42:50;66.27;;;9.57;;
6027;SDS011;3042;43.194;27.646;2022-07-23T10:45:23;101.53;;;13.30;;
6027;SDS011;3042;43.194;27.646;2022-07-23T10:47:54;33.60;;;6.97;;
6027;SDS011;3042;43.194;27.646;2022-07-23T10:50:23;38.23;;;5.37;;
6027;SDS011;3042;43.194;27.646;2022-07-23T10:53:09;46.23;;;8.80;;
6027;SDS011;3042;43.194;27.646;2022-07-23T10:55:41;35.03;;;6.20;;
6027;SDS011;3042;43.194;27.646;2022-07-23T10:58:10;23.90;;;4.87;;
6027;SDS011;3042;43.194;27.646;2022-07-23T11:00:44;64.67;;;11.53;;
6027;SDS011;3042;43.194;27.646;2022-07-23T11:03:27;27.90;;;6.60;;
6027;SDS011;3042;43.194;27.646;2022-07-23T11:05:57;32.03;;;5.63;;
6027;SDS011;3042;43.194;27.646;2022-07-23T11:08:25;26.20;;;5.70;;
6027;SDS011;3042;43.194;27.646;2022-07-23T11:10:54;79.20;;;10.10;;
6027;SDS011;3042;43.194;27.646;2022-07-23T11:13:39;76.70;;;11.47;;
6027;SDS011;3042;43.194;27.646;2022-07-23T11:16:11;49.20;;;9.37;;
6027;SDS011;3042;43.194;27.646;2022-07-23T11:18:56;64.23;;;9.57;;
6027;SDS011;3042;43.194;27.646;2022-07-23T11:21:42;12.17;;;4.53;;
6027;SDS011;3042;43.194;27.646;2022-07-23T11:24:11;18.60;;;5.07;;
6027;SDS011;3042;43.194;27.646;2022-07-23T11:26:45;26.40;;;4.97;;
6027;SDS011;3042;43.194;27.646;2022-07-23T11:32:18;40.00;;;7.10;;
6027;SDS011;3042;43.194;27.646;2022-07-23T11:35:00;40.37;;;8.10;;
6027;SDS011;3042;43.194;27.646;2022-07-23T11:37:35;34.93;;;6.43;;
6027;SDS011;3042;43.194;27.646;2022-07-23T11:40:06;42.67;;;6.27;;
6027;SDS011;3042;43.194;27.646;2022-07-23T11:42:37;17.90;;;4.53;;
6027;SDS011;3042;43.194;27.646;2022-07-23T11:45:06;30.30;;;5.93;;
6027;SDS011;3042;43.194;27.646;2022-07-23T11:47:34;32.27;;;6.10;;
6027;SDS011;3042;43.194;27.646;2022-07-23T11:50:03;24.00;;;6.20;;
6027;SDS011;3042;43.194;27.646;2022-07-23T11:52:32;18.33;;;5.10;;
6027;SDS011;3042;43.194;27.646;2022-07-23T11:55:00;31.27;;;6.27;;
6027;SDS011;3042;43.194;27.646;2022-07-23T11:57:30;29.13;;;7.10;;
6027;SDS011;3042;43.194;27.646;2022-07-23T12:00:04;56.73;;;8.60;;
6027;SDS011;3042;43.194;27.646;2022-07-23T12:02:34;24.57;;;5.47;;
6027;SDS011;3042;43.194;27.646;2022-07-23T12:05:01;43.07;;;6.17;;
6027;SDS011;3042;43.194;27.646;2022-07-23T12:07:30;15.23;;;4.93;;
6027;SDS011;3042;43.194;27.646;2022-07-23T12:09:59;38.80;;;7.57;;
6027;SDS011;3042;43.194;27.646;2022-07-23T12:12:34;40.53;;;7.50;;
6027;SDS011;3042;43.194;27.646;2022-07-23T12:15:06;33.37;;;7.40;;
6027;SDS011;3042;43.194;27.646;2022-07-23T12:17:34;27.57;;;6.67;;
6027;SDS011;3042;43.194;27.646;2022-07-23T12:20:04;14.73;;;4.53;;
6027;SDS011;3042;43.194;27.646;2022-07-23T12:22:34;20.13;;;5.87;;
6027;SDS011;3042;43.194;27.646;2022-07-23T12:25:05;15.40;;;5.40;;
6027;SDS011;3042;43.194;27.646;2022-07-23T12:27:35;12.40;;;3.90;;
6027;SDS011;3042;43.194;27.646;2022-07-23T12:30:18;26.27;;;6.43;;
6027;SDS011;3042;43.194;27.646;2022-07-23T12:32:47;15.33;;;5.40;;
6027;SDS011;3042;43.194;27.646;2022-07-23T12:35:16;17.43;;;5.03;;
6027;SDS011;3042;43.194;27.646;2022-07-23T12:37:44;22.53;;;5.30;;
6027;SDS011;3042;43.194;27.646;2022-07-23T12:40:23;17.97;;;3.80;;
6027;SDS011;3042;43.194;27.646;2022-07-23T12:42:54;16.33;;;4.43;;
6027;SDS011;3042;43.194;27.646;2022-07-23T12:45:24;25.07;;;6.20;;
6027;SDS011;3042;43.194;27.646;2022-07-23T12:48:02;15.03;;;4.43;;
6027;SDS011;3042;43.194;27.646;2022-07-23T12:50:38;35.87;;;8.03;;
6027;SDS011;3042;43.194;27.646;2022-07-23T12:53:09;9.97;;;4.43;;
6027;SDS011;3042;43.194;27.646;2022-07-23T12:55:39;41.13;;;5.23;;
6027;SDS011;3042;43.194;27.646;2022-07-23T12:58:08;21.63;;;4.53;;
6027;SDS011;3042;43.194;27.646;2022-07-23T13:00:55;7.97;;;3.80;;
6027;SDS011;3042;43.194;27.646;2022-07-23T13:03:28;6.93;;;4.13;;
6027;SDS011;3042;43.194;27.646;2022-07-23T13:05:57;20.10;;;5.13;;
6027;SDS011;3042;43.194;27.646;2022-07-23T13:08:26;18.80;;;4.17;;
6027;SDS011;3042;43.194;27.646;2022-07-23T13:10:55;10.13;;;3.63;;
6027;SDS011;3042;43.194;27.646;2022-07-23T13:13:23;31.20;;;5.30;;
6027;SDS011;3042;43.194;27.646;2022-07-23T13:15:52;16.43;;;4.40;;
6027;SDS011;3042;43.194;27.646;2022-07-23T13:18:21;24.87;;;5.10;;
6027;SDS011;3042;43.194;27.646;2022-07-23T13:20:49;29.70;;;6.33;;
6027;SDS011;3042;43.194;27.646;2022-07-23T13:23:18;28.43;;;5.67;;
6027;SDS011;3042;43.194;27.646;2022-07-23T13:25:45;38.53;;;6.50;;
6027;SDS011;3042;43.194;27.646;2022-07-23T13:28:13;33.60;;;5.40;;
6027;SDS011;3042;43.194;27.646;2022-07-23T13:30:41;10.90;;;3.70;;
6027;SDS011;3042;43.194;27.646;2022-07-23T13:33:10;21.67;;;7.00;;
6027;SDS011;3042;43.194;27.646;2022-07-23T13:35:39;13.00;;;4.80;;
6027;SDS011;3042;43.194;27.646;2022-07-23T13:38:06;16.10;;;4.77;;
6027;SDS011;3042;43.194;27.646;2022-07-23T13:40:34;9.23;;;3.80;;
6027;SDS011;3042;43.194;27.646;2022-07-23T13:43:04;6.30;;;4.10;;
6027;SDS011;3042;43.194;27.646;2022-07-23T13:45:32;17.40;;;4.27;;
6027;SDS011;3042;43.194;27.646;2022-07-23T13:47:59;10.90;;;4.10;;
6027;SDS011;3042;43.194;27.646;2022-07-23T13:50:27;13.47;;;4.40;;
6027;SDS011;3042;43.194;27.646;2022-07-23T13:52:56;8.90;;;3.83;;
6027;SDS011;3042;43.194;27.646;2022-07-23T13:55:26;12.13;;;4.60;;
6027;SDS011;3042;43.194;27.646;2022-07-23T13:57:54;10.70;;;4.20;;
6027;SDS011;3042;43.194;27.646;2022-07-23T14:00:21;8.67;;;4.70;;
6027;SDS011;3042;43.194;27.646;2022-07-23T14:02:48;13.33;;;4.30;;
6027;SDS011;3042;43.194;27.646;2022-07-23T14:05:19;13.20;;;4.43;;
6027;SDS011;3042;43.194;27.646;2022-07-23T14:07:46;8.17;;;3.73;;
6027;SDS011;3042;43.194;27.646;2022-07-23T14:10:18;14.10;;;5.20;;
6027;SDS011;3042;43.194;27.646;2022-07-23T14:12:47;24.63;;;4.57;;
6027;SDS011;3042;43.194;27.646;2022-07-23T14:15:16;14.20;;;4.57;;
6027;SDS011;3042;43.194;27.646;2022-07-23T14:17:44;7.73;;;3.43;;
6027;SDS011;3042;43.194;27.646;2022-07-23T14:20:12;16.00;;;4.93;;
6027;SDS011;3042;43.194;27.646;2022-07-23T14:22:40;27.40;;;5.13;;
6027;SDS011;3042;43.194;27.646;2022-07-23T14:25:08;8.73;;;4.07;;
6027;SDS011;3042;43.194;27.646;2022-07-23T14:27:39;4.20;;;3.80;;
6027;SDS011;3042;43.194;27.646;2022-07-23T14:30:07;39.57;;;5.43;;
6027;SDS011;3042;43.194;27.646;2022-07-23T14:32:35;5.93;;;3.73;;
6027;SDS011;3042;43.194;27.646;2022-07-23T14:35:04;9.80;;;3.57;;
6027;SDS011;3042;43.194;27.646;2022-07-23T14:37:32;13.67;;;4.10;;
6027;SDS011;3042;43.194;27.646;2022-07-23T14:39:59;11.90;;;3.73;;
6027;SDS011;3042;43.194;27.646;2022-07-23T14:42:27;6.03;;;5.33;;
6027;SDS011;3042;43.194;27.646;2022-07-23T14:44:56;4.87;;;4.50;;
6027;SDS011;3042;43.194;27.646;2022-07-23T14:47:24;3.93;;;3.20;;
6027;SDS011;3042;43.194;27.646;2022-07-23T14:49:51;4.43;;;3.00;;
6027;SDS011;3042;43.194;27.646;2022-07-23T14:52:18;3.10;;;2.90;;
6027;SDS011;3042;43.194;27.646;2022-07-23T14:54:45;4.30;;;3.17;;
6027;SDS011;3042;43.194;27.646;2022-07-23T14:57:13;3.90;;;3.60;;
6027;SDS011;3042;43.194;27.646;2022-07-23T14:59:41;10.13;;;2.97;;
6027;SDS011;3042;43.194;27.646;2022-07-23T15:02:10;9.70;;;3.90;;
6027;SDS011;3042;43.194;27.646;2022-07-23T15:04:38;17.00;;;4.33;;
6027;SDS011;3042;43.194;27.646;2022-07-23T15:07:06;5.73;;;3.60;;
6027;SDS011;3042;43.194;27.646;2022-07-23T15:09:33;19.50;;;3.70;;
6027;SDS011;3042;43.194;27.646;2022-07-23T15:12:01;11.57;;;4.30;;